createdAt,value
2017-07-29T00:00:48.327Z,77.8
2017-07-29T00:01:49.726Z,77.4
2017-07-29T00:02:51.165Z,77.0
2017-07-29T00:03:52.591Z,77.0
2017-07-29T00:04:53.974Z,76.3
2017-07-29T00:05:55.380Z,77.1
2017-07-29T00:06:56.781Z,76.4
2017-07-29T00:07:58.186Z,76.4
2017-07-29T00:08:59.584Z,76.6
2017-07-29T00:10:00.985Z,76.3
2017-07-29T00:11:02.379Z,76.4
2017-07-29T00:12:03.781Z,76.3
2017-07-29T00:13:05.184Z,76.3
2017-07-29T00:14:06.579Z,76.2
2017-07-29T00:15:07.982Z,76.3
2017-07-29T00:16:09.376Z,76.8
2017-07-29T00:17:10.774Z,76.2
2017-07-29T00:18:12.178Z,76.8
2017-07-29T00:19:13.583Z,76.5
2017-07-29T00:20:14.981Z,76.4
2017-07-29T00:21:16.386Z,76.4
2017-07-29T00:22:17.788Z,76.8
2017-07-29T00:23:19.184Z,76.5
2017-07-29T00:24:20.579Z,76.8
2017-07-29T00:25:21.976Z,76.2
2017-07-29T00:26:23.376Z,75.6
2017-07-29T00:27:24.776Z,75.4
2017-07-29T00:28:26.175Z,75.6
2017-07-29T00:29:27.576Z,75.6
2017-07-29T00:30:28.974Z,75.8
2017-07-29T00:31:30.379Z,75.1
2017-07-29T00:32:31.773Z,74.8
2017-07-29T00:33:33.174Z,74.9
2017-07-29T00:34:34.574Z,75.0
2017-07-29T00:35:35.980Z,75.0
2017-07-29T00:36:37.373Z,74.6
2017-07-29T00:37:38.771Z,74.8
2017-07-29T00:38:40.170Z,74.3
2017-07-29T00:39:41.567Z,74.2
2017-07-29T00:40:42.956Z,74.2
2017-07-29T00:41:44.365Z,74.1
2017-07-29T00:42:45.761Z,73.2
2017-07-29T00:43:47.166Z,73.2
2017-07-29T00:44:48.558Z,73.2
2017-07-29T00:45:49.951Z,73.3
2017-07-29T00:46:51.353Z,73.3
2017-07-29T00:47:52.750Z,73.1
2017-07-29T00:48:54.146Z,73.3
2017-07-29T00:49:55.547Z,72.8
2017-07-29T00:50:56.944Z,72.5
2017-07-29T00:51:58.343Z,72.0
2017-07-29T00:52:59.740Z,71.9
2017-07-29T00:54:01.144Z,71.9
2017-07-29T00:55:02.541Z,71.9
2017-07-29T00:56:03.940Z,71.4
2017-07-29T00:57:05.340Z,71.4
2017-07-29T00:58:06.741Z,71.5
2017-07-29T00:59:08.139Z,71.1
2017-07-29T01:00:09.536Z,70.8
2017-07-29T01:01:10.934Z,70.7
2017-07-29T01:02:12.331Z,70.6
2017-07-29T01:03:13.728Z,70.6
2017-07-29T01:04:15.128Z,70.7
2017-07-29T01:05:16.526Z,69.9
2017-07-29T01:06:17.921Z,70.2
2017-07-29T01:07:19.317Z,69.8
2017-07-29T01:08:20.715Z,69.7
2017-07-29T01:09:22.116Z,69.6
2017-07-29T01:10:23.515Z,69.8
2017-07-29T01:11:24.920Z,69.5
2017-07-29T01:12:26.315Z,68.9
2017-07-29T01:13:27.713Z,69.3
2017-07-29T01:14:29.119Z,69.3
2017-07-29T01:15:30.507Z,69.4
2017-07-29T01:16:31.906Z,69.2
2017-07-29T01:17:33.301Z,69.0
2017-07-29T01:18:34.700Z,69.4
2017-07-29T01:19:36.099Z,69.0
2017-07-29T01:20:37.494Z,69.3
2017-07-29T01:21:38.894Z,69.3
2017-07-29T01:22:40.288Z,69.2
2017-07-29T01:23:41.695Z,69.1
2017-07-29T01:24:43.085Z,69.2
2017-07-29T01:25:44.483Z,69.2
2017-07-29T01:26:45.884Z,69.0
2017-07-29T01:27:47.282Z,69.2
2017-07-29T01:28:48.678Z,69.4
2017-07-29T01:29:50.076Z,69.0
2017-07-29T01:30:51.478Z,69.2
2017-07-29T01:31:52.881Z,69.0
2017-07-29T01:32:54.276Z,69.0
2017-07-29T01:33:55.693Z,69.5
2017-07-29T01:34:57.089Z,69.0
2017-07-29T01:35:58.482Z,69.4
2017-07-29T01:36:59.878Z,69.2
2017-07-29T01:38:01.281Z,69.2
2017-07-29T01:39:02.677Z,69.4
2017-07-29T01:40:04.075Z,69.1
2017-07-29T01:41:05.477Z,69.2
2017-07-29T01:42:06.878Z,69.3
2017-07-29T01:43:08.261Z,69.2
2017-07-29T01:44:09.674Z,69.4
2017-07-29T01:45:11.076Z,69.3
2017-07-29T01:46:12.506Z,69.3
2017-07-29T01:47:13.904Z,69.1
2017-07-29T01:48:15.312Z,69.3
2017-07-29T01:49:16.702Z,69.3
2017-07-29T01:50:18.099Z,69.2
2017-07-29T01:51:19.499Z,69.4
2017-07-29T01:52:20.897Z,69.5
2017-07-29T01:53:22.297Z,69.6
2017-07-29T01:54:23.699Z,69.5
2017-07-29T01:55:25.099Z,69.8
2017-07-29T01:56:26.531Z,69.8
2017-07-29T01:57:27.925Z,69.7
2017-07-29T01:58:29.325Z,69.6
2017-07-29T01:59:30.723Z,69.7
2017-07-29T02:00:32.120Z,69.6
2017-07-29T02:01:33.523Z,69.7
2017-07-29T02:02:34.919Z,69.7
2017-07-29T02:03:36.315Z,69.8
2017-07-29T02:04:37.716Z,69.7
2017-07-29T02:05:39.111Z,69.7
2017-07-29T02:06:40.511Z,69.8
2017-07-29T02:07:41.905Z,69.7
2017-07-29T02:08:43.303Z,69.8
2017-07-29T02:09:44.702Z,69.6
2017-07-29T02:10:46.103Z,69.8
2017-07-29T02:11:47.492Z,69.6
2017-07-29T02:12:48.889Z,69.5
2017-07-29T02:13:50.287Z,69.8
2017-07-29T02:14:51.686Z,69.6
2017-07-29T02:15:53.083Z,69.8
2017-07-29T02:16:54.497Z,69.5
2017-07-29T02:17:55.889Z,69.4
2017-07-29T02:18:57.293Z,69.2
2017-07-29T02:19:58.689Z,69.3
2017-07-29T02:21:00.112Z,69.4
2017-07-29T02:22:01.486Z,69.3
2017-07-29T02:23:02.886Z,69.5
2017-07-29T02:24:04.285Z,69.4
2017-07-29T02:25:05.683Z,69.3
2017-07-29T02:26:07.079Z,69.0
2017-07-29T02:27:08.473Z,69.0
2017-07-29T02:28:09.867Z,69.3
2017-07-29T02:29:11.265Z,69.2
2017-07-29T02:30:12.666Z,69.5
2017-07-29T02:31:14.062Z,69.3
2017-07-29T02:32:15.463Z,69.2
2017-07-29T02:33:16.865Z,69.2
2017-07-29T02:34:18.265Z,69.2
2017-07-29T02:35:19.661Z,69.3
2017-07-29T02:36:21.059Z,69.4
2017-07-29T02:37:22.458Z,69.2
2017-07-29T02:38:23.860Z,69.1
2017-07-29T02:39:25.261Z,69.2
2017-07-29T02:40:26.653Z,69.5
2017-07-29T02:41:28.052Z,69.1
2017-07-29T02:42:29.451Z,69.4
2017-07-29T02:43:30.848Z,69.4
2017-07-29T02:44:32.251Z,69.4
2017-07-29T02:45:33.645Z,69.3
2017-07-29T02:46:35.049Z,69.2
2017-07-29T02:47:36.438Z,69.4
2017-07-29T02:48:37.837Z,69.0
2017-07-29T02:49:39.234Z,69.4
2017-07-29T02:50:40.631Z,69.1
2017-07-29T02:51:42.030Z,69.0
2017-07-29T02:52:43.430Z,69.0
2017-07-29T02:53:44.826Z,69.0
2017-07-29T02:54:46.222Z,69.2
2017-07-29T02:55:47.628Z,69.0
2017-07-29T02:56:49.018Z,69.0
2017-07-29T02:57:50.414Z,69.0
2017-07-29T02:58:51.819Z,69.3
2017-07-29T02:59:53.220Z,69.0
2017-07-29T03:00:54.612Z,69.1
2017-07-29T03:01:56.006Z,68.6
2017-07-29T03:02:57.403Z,68.7
2017-07-29T03:03:58.807Z,69.3
2017-07-29T03:05:00.209Z,69.1
2017-07-29T03:06:01.609Z,68.8
2017-07-29T03:07:03.007Z,68.9
2017-07-29T03:08:04.403Z,68.8
2017-07-29T03:09:05.814Z,68.4
2017-07-29T03:10:07.162Z,68.2
2017-07-29T03:11:08.563Z,68.9
2017-07-29T03:12:09.957Z,68.4
2017-07-29T03:13:11.355Z,68.3
2017-07-29T03:14:12.756Z,68.0
2017-07-29T03:15:14.151Z,68.0
2017-07-29T03:16:15.547Z,68.1
2017-07-29T03:17:16.948Z,68.2
2017-07-29T03:18:18.345Z,68.3
2017-07-29T03:19:19.744Z,68.2
2017-07-29T03:20:21.143Z,67.9
2017-07-29T03:21:22.546Z,67.9
2017-07-29T03:22:23.947Z,68.0
2017-07-29T03:23:25.370Z,68.0
2017-07-29T03:24:26.765Z,68.2
2017-07-29T03:25:28.356Z,68.2
2017-07-29T03:26:29.819Z,68.1
2017-07-29T03:27:31.216Z,68.2
2017-07-29T03:28:32.626Z,68.2
2017-07-29T03:29:34.032Z,68.2
2017-07-29T03:30:35.428Z,68.2
2017-07-29T03:31:36.826Z,68.1
2017-07-29T03:32:38.221Z,68.2
2017-07-29T03:33:39.635Z,68.1
2017-07-29T03:34:41.046Z,68.3
2017-07-29T03:35:42.448Z,68.3
2017-07-29T03:36:43.844Z,69.0
2017-07-29T03:37:45.249Z,68.7
2017-07-29T03:38:46.656Z,68.5
2017-07-29T03:39:48.056Z,68.4
2017-07-29T03:40:49.459Z,69.0
2017-07-29T03:41:50.849Z,68.7
2017-07-29T03:42:52.249Z,68.8
2017-07-29T03:43:53.653Z,68.7
2017-07-29T03:44:55.048Z,68.8
2017-07-29T03:45:56.451Z,69.2
2017-07-29T03:46:57.847Z,68.4
2017-07-29T03:47:59.244Z,68.6
2017-07-29T03:49:00.651Z,68.7
2017-07-29T03:50:02.047Z,68.5
2017-07-29T03:51:03.448Z,68.9
2017-07-29T03:52:04.848Z,68.5
2017-07-29T03:53:06.242Z,68.9
2017-07-29T03:54:07.653Z,68.9
2017-07-29T03:55:09.054Z,68.5
2017-07-29T03:56:10.452Z,68.8
2017-07-29T03:57:11.853Z,68.4
2017-07-29T03:58:13.253Z,68.3
2017-07-29T03:59:14.651Z,68.6
2017-07-29T04:00:16.048Z,68.4
2017-07-29T04:01:17.453Z,68.5
2017-07-29T04:02:18.851Z,68.5
2017-07-29T04:03:20.250Z,68.4
2017-07-29T04:04:21.654Z,68.3
2017-07-29T04:05:23.060Z,68.4
2017-07-29T04:06:24.457Z,68.3
2017-07-29T04:07:25.856Z,68.6
2017-07-29T04:08:27.251Z,68.4
2017-07-29T04:09:28.684Z,68.5
2017-07-29T04:10:30.094Z,68.7
2017-07-29T04:11:31.531Z,68.6
2017-07-29T04:12:32.939Z,68.6
2017-07-29T04:13:34.330Z,68.9
2017-07-29T04:14:35.734Z,68.6
2017-07-29T04:15:37.133Z,69.0
2017-07-29T04:16:38.553Z,68.8
2017-07-29T04:17:39.954Z,68.5
2017-07-29T04:18:41.358Z,68.3
2017-07-29T04:19:42.760Z,68.4
2017-07-29T04:20:44.158Z,68.9
2017-07-29T04:21:45.559Z,68.9
2017-07-29T04:22:46.964Z,68.7
2017-07-29T04:23:48.375Z,68.5
2017-07-29T04:24:49.780Z,68.8
2017-07-29T04:25:51.181Z,68.9
2017-07-29T04:26:52.580Z,68.4
2017-07-29T04:27:53.981Z,68.8
2017-07-29T04:28:55.381Z,69.3
2017-07-29T04:29:56.781Z,69.1
2017-07-29T04:30:58.181Z,68.8
2017-07-29T04:31:59.581Z,69.0
2017-07-29T04:33:00.985Z,69.2
2017-07-29T04:34:02.382Z,69.1
2017-07-29T04:35:03.782Z,69.3
2017-07-29T04:36:05.182Z,69.2
2017-07-29T04:37:06.582Z,69.2
2017-07-29T04:38:07.983Z,69.0
2017-07-29T04:39:09.384Z,69.3
2017-07-29T04:40:10.785Z,69.0
2017-07-29T04:41:12.183Z,69.3
2017-07-29T04:42:13.582Z,69.2
2017-07-29T04:43:14.983Z,69.4
2017-07-29T04:44:16.383Z,69.4
2017-07-29T04:45:17.785Z,69.0
2017-07-29T04:46:19.186Z,69.2
2017-07-29T04:47:20.596Z,69.3
2017-07-29T04:48:21.993Z,69.1
2017-07-29T04:49:23.401Z,69.3
2017-07-29T04:50:24.802Z,69.3
2017-07-29T04:51:26.205Z,69.2
2017-07-29T04:52:27.606Z,69.2
2017-07-29T04:53:29.007Z,69.0
2017-07-29T04:54:30.411Z,69.1
2017-07-29T04:55:31.816Z,69.3
2017-07-29T04:56:33.208Z,69.4
2017-07-29T04:57:34.612Z,69.3
2017-07-29T04:58:36.012Z,69.0
2017-07-29T04:59:37.417Z,69.6
2017-07-29T05:00:38.826Z,69.4
2017-07-29T05:01:40.235Z,69.5
2017-07-29T05:02:41.638Z,69.6
2017-07-29T05:03:43.038Z,69.5
2017-07-29T05:04:44.437Z,69.4
2017-07-29T05:05:45.837Z,69.2
2017-07-29T05:06:47.241Z,68.8
2017-07-29T05:07:48.646Z,69.1
2017-07-29T05:08:50.050Z,68.7
2017-07-29T05:09:51.448Z,68.9
2017-07-29T05:10:52.909Z,68.3
2017-07-29T05:11:54.314Z,68.4
2017-07-29T05:12:55.720Z,68.2
2017-07-29T05:13:57.123Z,68.1
2017-07-29T05:14:58.523Z,67.4
2017-07-29T05:15:59.922Z,67.2
2017-07-29T05:17:01.324Z,67.9
2017-07-29T05:18:02.723Z,67.0
2017-07-29T05:19:04.124Z,67.3
2017-07-29T05:20:05.523Z,68.0
2017-07-29T05:21:06.926Z,67.3
2017-07-29T05:22:08.325Z,67.3
2017-07-29T05:23:09.731Z,67.0
2017-07-29T05:24:11.132Z,67.0
2017-07-29T05:25:12.529Z,67.0
2017-07-29T05:26:13.932Z,66.7
2017-07-29T05:27:15.354Z,66.7
2017-07-29T05:28:16.755Z,66.7
2017-07-29T05:29:18.161Z,66.8
2017-07-29T05:30:19.562Z,66.6
2017-07-29T05:31:20.968Z,66.3
2017-07-29T05:32:22.369Z,66.6
2017-07-29T05:33:23.770Z,66.1
2017-07-29T05:34:25.171Z,66.0
2017-07-29T05:35:26.574Z,66.1
2017-07-29T05:36:27.980Z,65.6
2017-07-29T05:37:29.381Z,65.8
2017-07-29T05:38:30.784Z,65.7
2017-07-29T05:39:32.182Z,65.8
2017-07-29T05:40:33.590Z,66.1
2017-07-29T05:41:35.000Z,65.4
2017-07-29T05:42:36.403Z,65.6
2017-07-29T05:43:37.806Z,65.1
2017-07-29T05:44:39.221Z,65.3
2017-07-29T05:45:40.613Z,64.9
2017-07-29T05:46:42.014Z,65.0
2017-07-29T05:47:43.417Z,64.9
2017-07-29T05:48:44.820Z,64.7
2017-07-29T05:49:46.223Z,64.3
2017-07-29T05:50:47.637Z,64.4
2017-07-29T05:51:49.040Z,64.9
2017-07-29T05:52:50.446Z,64.8
2017-07-29T05:53:51.848Z,64.1
2017-07-29T05:54:53.249Z,63.1
2017-07-29T05:55:54.652Z,63.5
2017-07-29T05:56:56.052Z,63.1
2017-07-29T05:57:57.456Z,63.6
2017-07-29T05:58:58.862Z,63.3
2017-07-29T06:00:00.259Z,63.1
2017-07-29T06:01:01.660Z,63.0
2017-07-29T06:02:03.060Z,63.4
2017-07-29T06:03:04.480Z,63.1
2017-07-29T06:04:05.881Z,63.2
2017-07-29T06:05:07.292Z,62.6
2017-07-29T06:06:08.688Z,62.5
2017-07-29T06:07:10.093Z,62.5
2017-07-29T06:08:11.495Z,63.1
2017-07-29T06:09:12.907Z,63.2
2017-07-29T06:10:14.338Z,62.6
2017-07-29T06:11:15.740Z,63.6
2017-07-29T06:12:17.153Z,63.6
2017-07-29T06:13:18.560Z,63.5
2017-07-29T06:14:19.959Z,63.8
2017-07-29T06:15:21.359Z,62.9
2017-07-29T06:16:22.760Z,63.1
2017-07-29T06:17:24.166Z,63.3
2017-07-29T06:18:25.568Z,63.1
2017-07-29T06:19:26.972Z,62.5
2017-07-29T06:20:28.378Z,62.6
2017-07-29T06:21:29.778Z,62.5
2017-07-29T06:22:31.187Z,63.0
2017-07-29T06:23:32.598Z,63.6
2017-07-29T06:24:33.997Z,63.4
2017-07-29T06:25:35.403Z,63.2
2017-07-29T06:26:36.808Z,63.2
2017-07-29T06:27:38.214Z,63.6
2017-07-29T06:28:39.614Z,63.3
2017-07-29T06:29:41.013Z,63.4
2017-07-29T06:30:42.415Z,63.0
2017-07-29T06:31:43.816Z,63.3
2017-07-29T06:32:45.220Z,63.3
2017-07-29T06:33:46.625Z,63.4
2017-07-29T06:34:48.037Z,62.7
2017-07-29T06:35:49.448Z,62.5
2017-07-29T06:36:50.849Z,62.5
2017-07-29T06:37:52.249Z,62.7
2017-07-29T06:38:53.962Z,62.8
2017-07-29T06:39:55.361Z,63.5
2017-07-29T06:40:56.779Z,63.3
2017-07-29T06:41:58.174Z,63.0
2017-07-29T06:42:59.584Z,63.5
2017-07-29T06:44:00.983Z,62.6
2017-07-29T06:45:02.396Z,62.9
2017-07-29T06:46:03.811Z,62.4
2017-07-29T06:47:05.217Z,62.2
2017-07-29T06:48:06.618Z,62.2
2017-07-29T06:49:08.018Z,62.0
2017-07-29T06:50:09.426Z,62.3
2017-07-29T06:51:10.822Z,62.0
2017-07-29T06:52:12.263Z,61.3
2017-07-29T06:53:13.663Z,61.6
2017-07-29T06:54:15.066Z,62.2
2017-07-29T06:55:16.469Z,61.6
2017-07-29T06:56:17.877Z,62.0
2017-07-29T06:57:19.335Z,61.4
2017-07-29T06:58:20.767Z,61.4
2017-07-29T06:59:22.169Z,61.2
2017-07-29T07:00:23.603Z,62.0
2017-07-29T07:01:25.005Z,61.3
2017-07-29T07:02:26.464Z,62.2
2017-07-29T07:03:27.869Z,61.9
2017-07-29T07:04:29.284Z,62.3
2017-07-29T07:05:30.673Z,61.3
2017-07-29T07:06:32.088Z,61.1
2017-07-29T07:07:33.626Z,61.2
2017-07-29T07:08:35.056Z,61.5
2017-07-29T07:09:36.517Z,61.5
2017-07-29T07:10:37.906Z,60.9
2017-07-29T07:11:39.314Z,61.4
2017-07-29T07:12:40.722Z,61.2
2017-07-29T07:13:42.122Z,61.4
2017-07-29T07:14:43.530Z,61.1
2017-07-29T07:15:44.935Z,61.0
2017-07-29T07:16:46.357Z,61.1
2017-07-29T07:17:47.765Z,61.1
2017-07-29T07:18:49.167Z,61.4
2017-07-29T07:19:50.573Z,61.9
2017-07-29T07:20:51.983Z,61.4
2017-07-29T07:21:53.399Z,62.0
2017-07-29T07:22:54.809Z,61.5
2017-07-29T07:23:56.215Z,62.0
2017-07-29T07:24:57.622Z,61.5
2017-07-29T07:25:59.024Z,61.7
2017-07-29T07:27:00.451Z,61.2
2017-07-29T07:28:01.831Z,61.5
2017-07-29T07:29:03.238Z,61.5
2017-07-29T07:30:04.641Z,61.5
2017-07-29T07:31:06.043Z,61.5
2017-07-29T07:32:07.456Z,62.0
2017-07-29T07:33:08.862Z,61.3
2017-07-29T07:34:10.262Z,61.3
2017-07-29T07:35:11.676Z,61.9
2017-07-29T07:36:13.077Z,61.9
2017-07-29T07:37:14.486Z,61.7
2017-07-29T07:38:15.891Z,61.9
2017-07-29T07:39:17.303Z,62.2
2017-07-29T07:40:18.702Z,62.3
2017-07-29T07:41:20.113Z,61.7
2017-07-29T07:42:21.518Z,62.2
2017-07-29T07:43:22.917Z,62.2
2017-07-29T07:44:24.327Z,61.5
2017-07-29T07:45:25.734Z,62.1
2017-07-29T07:46:27.139Z,61.9
2017-07-29T07:47:28.546Z,61.5
2017-07-29T07:48:29.948Z,61.5
2017-07-29T07:49:31.351Z,61.7
2017-07-29T07:50:32.755Z,61.5
2017-07-29T07:51:34.164Z,61.5
2017-07-29T07:52:35.566Z,61.2
2017-07-29T07:53:36.976Z,62.0
2017-07-29T07:54:38.380Z,61.7
2017-07-29T07:55:39.785Z,61.1
2017-07-29T07:56:41.190Z,61.5
2017-07-29T07:57:42.601Z,61.1
2017-07-29T07:58:44.003Z,61.6
2017-07-29T07:59:45.408Z,62.0
2017-07-29T08:00:46.813Z,61.9
2017-07-29T08:01:48.220Z,62.4
2017-07-29T08:02:49.622Z,61.8
2017-07-29T08:03:51.027Z,62.2
2017-07-29T08:04:52.434Z,62.0
2017-07-29T08:05:53.841Z,62.2
2017-07-29T08:06:55.252Z,61.9
2017-07-29T08:07:56.654Z,62.0
2017-07-29T08:08:58.058Z,62.1
2017-07-29T08:09:59.460Z,62.1
2017-07-29T08:11:00.866Z,62.4
2017-07-29T08:12:02.269Z,62.6
2017-07-29T08:13:03.676Z,62.1
2017-07-29T08:14:05.084Z,62.2
2017-07-29T08:15:06.504Z,61.9
2017-07-29T08:16:07.893Z,62.4
2017-07-29T08:17:09.298Z,63.1
2017-07-29T08:18:10.705Z,62.1
2017-07-29T08:19:12.105Z,61.5
2017-07-29T08:20:13.511Z,61.5
2017-07-29T08:21:14.920Z,61.4
2017-07-29T08:22:16.325Z,61.3
2017-07-29T08:23:17.735Z,61.2
2017-07-29T08:24:19.134Z,61.0
2017-07-29T08:25:20.543Z,60.6
2017-07-29T08:26:21.958Z,60.5
2017-07-29T08:27:23.361Z,60.5
2017-07-29T08:28:24.770Z,61.0
2017-07-29T08:29:26.177Z,60.3
2017-07-29T08:30:27.580Z,60.6
2017-07-29T08:31:28.984Z,59.8
2017-07-29T08:32:30.389Z,59.7
2017-07-29T08:33:31.794Z,60.1
2017-07-29T08:34:33.200Z,60.0
2017-07-29T08:35:34.608Z,59.4
2017-07-29T08:36:36.015Z,59.4
2017-07-29T08:37:37.420Z,59.3
2017-07-29T08:38:38.823Z,59.5
2017-07-29T08:39:40.227Z,59.4
2017-07-29T08:40:41.627Z,58.9
2017-07-29T08:41:43.038Z,59.1
2017-07-29T08:42:44.446Z,59.2
2017-07-29T08:43:45.856Z,59.2
2017-07-29T08:44:47.258Z,59.2
2017-07-29T08:45:48.664Z,59.4
2017-07-29T08:46:50.066Z,58.3
2017-07-29T08:47:51.478Z,59.0
2017-07-29T08:48:52.881Z,59.1
2017-07-29T08:49:54.289Z,58.3
2017-07-29T08:50:55.695Z,59.1
2017-07-29T08:51:57.099Z,58.9
2017-07-29T08:52:58.504Z,57.6
2017-07-29T08:53:59.911Z,57.3
2017-07-29T08:55:01.320Z,57.4
2017-07-29T08:56:02.746Z,57.4
2017-07-29T08:57:04.150Z,57.3
2017-07-29T08:58:05.553Z,57.5
2017-07-29T08:59:06.957Z,58.6
2017-07-29T09:00:08.364Z,58.2
2017-07-29T09:01:09.770Z,58.7
2017-07-29T09:02:11.178Z,58.3
2017-07-29T09:03:12.587Z,58.5
2017-07-29T09:04:13.995Z,58.8
2017-07-29T09:05:15.402Z,57.7
2017-07-29T09:06:16.806Z,57.3
2017-07-29T09:07:18.220Z,57.5
2017-07-29T09:08:19.627Z,57.0
2017-07-29T09:09:21.032Z,57.4
2017-07-29T09:10:22.444Z,57.4
2017-07-29T09:11:23.851Z,57.5
2017-07-29T09:12:25.257Z,57.4
2017-07-29T09:13:26.664Z,57.4
2017-07-29T09:14:28.066Z,56.4
2017-07-29T09:15:29.472Z,56.6
2017-07-29T09:16:30.882Z,56.2
2017-07-29T09:17:32.281Z,55.4
2017-07-29T09:18:33.685Z,54.9
2017-07-29T09:19:35.098Z,54.6
2017-07-29T09:20:36.504Z,54.3
2017-07-29T09:21:37.910Z,54.7
2017-07-29T09:22:39.316Z,54.9
2017-07-29T09:23:40.721Z,55.3
2017-07-29T09:24:42.125Z,55.9
2017-07-29T09:25:43.537Z,55.6
2017-07-29T09:26:44.945Z,55.8
2017-07-29T09:27:46.348Z,55.3
2017-07-29T09:28:47.753Z,55.4
2017-07-29T09:29:49.159Z,55.2
2017-07-29T09:30:50.561Z,54.9
2017-07-29T09:31:51.978Z,55.7
2017-07-29T09:32:53.391Z,56.4
2017-07-29T09:33:54.805Z,54.9
2017-07-29T09:34:56.206Z,55.1
2017-07-29T09:35:57.615Z,54.9
2017-07-29T09:36:59.022Z,54.9
2017-07-29T09:38:00.430Z,55.1
2017-07-29T09:39:01.835Z,54.5
2017-07-29T09:40:03.244Z,55.1
2017-07-29T09:41:04.653Z,54.4
2017-07-29T09:42:06.071Z,54.5
2017-07-29T09:43:07.468Z,54.7
2017-07-29T09:44:08.899Z,54.9
2017-07-29T09:45:10.291Z,55.0
2017-07-29T09:46:11.698Z,54.9
2017-07-29T09:47:13.111Z,54.6
2017-07-29T09:48:14.517Z,54.3
2017-07-29T09:49:15.925Z,53.3
2017-07-29T09:50:17.330Z,52.9
2017-07-29T09:51:18.738Z,53.5
2017-07-29T09:52:20.147Z,52.5
2017-07-29T09:53:21.567Z,52.9
2017-07-29T09:54:22.983Z,54.5
2017-07-29T09:55:24.393Z,53.1
2017-07-29T09:56:25.801Z,51.8
2017-07-29T09:57:27.217Z,52.0
2017-07-29T09:58:28.630Z,52.8
2017-07-29T09:59:30.043Z,52.5
2017-07-29T10:00:31.483Z,52.9
2017-07-29T10:01:32.893Z,53.0
2017-07-29T10:02:34.300Z,53.6
2017-07-29T10:03:35.703Z,54.2
2017-07-29T10:04:37.112Z,54.4
2017-07-29T10:05:38.521Z,52.9
2017-07-29T10:06:39.925Z,53.5
2017-07-29T10:07:41.335Z,52.9
2017-07-29T10:08:42.743Z,51.3
2017-07-29T10:09:44.151Z,51.6
2017-07-29T10:10:45.557Z,52.6
2017-07-29T10:11:46.962Z,51.6
2017-07-29T10:12:48.401Z,51.7
2017-07-29T10:13:49.810Z,51.6
2017-07-29T10:14:51.217Z,51.4
2017-07-29T10:15:52.628Z,51.6
2017-07-29T10:16:54.042Z,51.8
2017-07-29T10:17:55.450Z,52.1
2017-07-29T10:18:56.858Z,50.7
2017-07-29T10:19:58.264Z,49.7
2017-07-29T10:20:59.673Z,50.1
2017-07-29T10:22:01.079Z,50.3
2017-07-29T10:23:02.489Z,50.9
2017-07-29T10:24:04.034Z,49.9
2017-07-29T10:25:05.441Z,49.7
2017-07-29T10:26:06.847Z,50.2
2017-07-29T10:27:08.255Z,51.7
2017-07-29T10:28:09.666Z,51.1
2017-07-29T10:29:11.072Z,51.3
2017-07-29T10:30:12.482Z,51.5
2017-07-29T10:31:13.891Z,51.2
2017-07-29T10:32:15.301Z,51.3
2017-07-29T10:33:16.713Z,51.4
2017-07-29T10:34:18.116Z,50.6
2017-07-29T10:35:19.525Z,50.8
2017-07-29T10:36:20.931Z,50.3
2017-07-29T10:37:22.339Z,51.5
2017-07-29T10:38:23.753Z,51.3
2017-07-29T10:39:25.162Z,50.1
2017-07-29T10:40:26.571Z,49.9
2017-07-29T10:41:28.002Z,49.7
2017-07-29T10:42:29.410Z,50.6
2017-07-29T10:43:30.822Z,50.6
2017-07-29T10:44:32.232Z,49.5
2017-07-29T10:45:33.645Z,49.6
2017-07-29T10:46:35.051Z,49.3
2017-07-29T10:47:36.460Z,49.7
2017-07-29T10:48:37.868Z,50.9
2017-07-29T10:49:39.280Z,49.9
2017-07-29T10:50:40.690Z,49.6
2017-07-29T10:51:42.100Z,49.1
2017-07-29T10:52:43.516Z,49.3
2017-07-29T10:53:44.925Z,50.1
2017-07-29T10:54:46.355Z,51.8
2017-07-29T10:55:47.748Z,52.2
2017-07-29T10:56:49.163Z,52.5
2017-07-29T10:57:50.576Z,51.7
2017-07-29T10:58:51.980Z,49.8
2017-07-29T10:59:53.390Z,49.4
2017-07-29T11:00:54.795Z,50.2
2017-07-29T11:01:56.204Z,50.1
2017-07-29T11:02:57.615Z,50.4
2017-07-29T11:03:59.019Z,51.3
2017-07-29T11:05:00.426Z,51.2
2017-07-29T11:06:01.842Z,51.1
2017-07-29T11:07:03.253Z,50.3
2017-07-29T11:08:04.660Z,50.3
2017-07-29T11:09:06.073Z,50.0
2017-07-29T11:10:07.473Z,50.8
2017-07-29T11:11:08.883Z,50.6
2017-07-29T11:12:10.291Z,50.3
2017-07-29T11:13:11.701Z,49.7
2017-07-29T11:14:13.115Z,49.9
2017-07-29T11:15:14.523Z,50.8
2017-07-29T11:16:15.930Z,49.6
2017-07-29T11:17:17.348Z,49.6
2017-07-29T11:18:18.751Z,48.9
2017-07-29T11:19:20.164Z,49.4
2017-07-29T11:20:21.575Z,50.3
2017-07-29T11:21:22.984Z,49.2
2017-07-29T11:22:24.392Z,49.5
2017-07-29T11:23:25.802Z,49.3
2017-07-29T11:24:27.213Z,48.4
2017-07-29T11:25:28.624Z,48.2
2017-07-29T11:26:30.034Z,47.6
2017-07-29T11:27:31.449Z,47.0
2017-07-29T11:28:32.858Z,47.9
2017-07-29T11:29:34.265Z,48.2
2017-07-29T11:30:35.673Z,48.9
2017-07-29T11:31:37.085Z,49.4
2017-07-29T11:32:38.505Z,49.4
2017-07-29T11:33:39.910Z,49.5
2017-07-29T11:34:41.324Z,49.4
2017-07-29T11:35:42.736Z,49.6
2017-07-29T11:36:44.140Z,49.3
2017-07-29T11:37:45.548Z,49.2
2017-07-29T11:38:46.977Z,49.5
2017-07-29T11:39:48.401Z,49.7
2017-07-29T11:40:49.848Z,49.5
2017-07-29T11:41:51.260Z,49.9
2017-07-29T11:42:52.670Z,49.9
2017-07-29T11:43:54.081Z,50.8
2017-07-29T11:44:55.481Z,51.4
2017-07-29T11:45:56.892Z,51.6
2017-07-29T11:46:58.305Z,52.7
2017-07-29T11:47:59.710Z,52.0
2017-07-29T11:49:01.123Z,52.7
2017-07-29T11:50:02.534Z,52.6
2017-07-29T11:51:03.941Z,52.6
2017-07-29T11:52:05.386Z,52.9
2017-07-29T11:53:06.784Z,52.6
2017-07-29T11:54:08.192Z,53.1
2017-07-29T11:55:09.600Z,53.2
2017-07-29T11:56:11.007Z,53.9
2017-07-29T11:57:12.416Z,53.4
2017-07-29T11:58:13.822Z,53.3
2017-07-29T11:59:15.228Z,53.9
2017-07-29T12:00:16.637Z,53.4
2017-07-29T12:01:18.049Z,53.7
2017-07-29T12:02:19.467Z,53.5
2017-07-29T12:03:20.869Z,53.6
2017-07-29T12:04:22.282Z,53.8
2017-07-29T12:05:23.690Z,54.7
2017-07-29T12:06:25.093Z,54.8
2017-07-29T12:07:26.497Z,53.8
2017-07-29T12:08:27.924Z,53.3
2017-07-29T12:09:29.330Z,53.4
2017-07-29T12:10:30.738Z,53.9
2017-07-29T12:11:32.155Z,53.9
2017-07-29T12:12:33.562Z,53.9
2017-07-29T12:13:35.005Z,54.6
2017-07-29T12:14:36.435Z,53.6
2017-07-29T12:15:37.842Z,53.9
2017-07-29T12:16:39.255Z,53.7
2017-07-29T12:17:40.666Z,53.4
2017-07-29T12:18:42.367Z,53.9
2017-07-29T12:19:43.775Z,54.7
2017-07-29T12:20:45.182Z,54.6
2017-07-29T12:21:46.590Z,54.7
2017-07-29T12:22:48.000Z,54.9
2017-07-29T12:23:49.418Z,54.9
2017-07-29T12:24:50.828Z,54.6
2017-07-29T12:25:52.234Z,54.6
2017-07-29T12:26:53.649Z,54.2
2017-07-29T12:27:55.065Z,54.1
2017-07-29T12:28:56.476Z,55.0
2017-07-29T12:29:57.886Z,54.6
2017-07-29T12:30:59.295Z,53.9
2017-07-29T12:32:00.715Z,54.8
2017-07-29T12:33:02.246Z,55.1
2017-07-29T12:34:03.694Z,54.8
2017-07-29T12:35:05.099Z,55.2
2017-07-29T12:36:06.538Z,55.0
2017-07-29T12:37:07.952Z,54.8
2017-07-29T12:38:09.397Z,54.6
2017-07-29T12:39:10.848Z,55.1
2017-07-29T12:40:12.293Z,55.0
2017-07-29T12:41:13.734Z,55.4
2017-07-29T12:42:15.160Z,55.1
2017-07-29T12:43:16.563Z,55.5
2017-07-29T12:44:17.969Z,56.5
2017-07-29T12:45:19.394Z,57.0
2017-07-29T12:46:21.070Z,57.1
2017-07-29T12:47:22.452Z,57.3
2017-07-29T12:48:23.860Z,57.9
2017-07-29T12:49:25.289Z,58.9
2017-07-29T12:50:26.702Z,59.0
2017-07-29T12:51:28.115Z,58.0
2017-07-29T12:52:29.518Z,58.2
2017-07-29T12:53:30.926Z,58.5
2017-07-29T12:54:32.334Z,58.5
2017-07-29T12:55:33.740Z,59.2
2017-07-29T12:56:35.146Z,59.6
2017-07-29T12:57:36.551Z,59.3
2017-07-29T12:58:37.964Z,59.2
2017-07-29T12:59:39.372Z,59.3
2017-07-29T13:00:40.781Z,59.7
2017-07-29T13:01:42.191Z,59.4
2017-07-29T13:02:43.596Z,59.1
2017-07-29T13:03:45.002Z,58.0
2017-07-29T13:04:46.429Z,58.2
2017-07-29T13:05:47.829Z,57.7
2017-07-29T13:06:49.252Z,57.6
2017-07-29T13:07:50.705Z,57.5
2017-07-29T13:08:52.114Z,57.5
2017-07-29T13:09:53.525Z,57.5
2017-07-29T13:10:54.942Z,57.5
2017-07-29T13:11:56.349Z,57.4
2017-07-29T13:12:57.759Z,57.0
2017-07-29T13:13:59.165Z,57.5
2017-07-29T13:15:00.576Z,57.5
2017-07-29T13:16:01.995Z,57.3
2017-07-29T13:17:03.400Z,57.7
2017-07-29T13:18:04.807Z,57.8
2017-07-29T13:19:06.214Z,57.6
2017-07-29T13:20:07.624Z,57.5
2017-07-29T13:21:09.033Z,57.2
2017-07-29T13:22:10.439Z,57.7
2017-07-29T13:23:11.849Z,57.6
2017-07-29T13:24:13.259Z,56.5
2017-07-29T13:25:14.680Z,56.5
2017-07-29T13:26:16.083Z,57.4
2017-07-29T13:27:17.497Z,57.3
2017-07-29T13:28:18.903Z,56.9
2017-07-29T13:29:20.324Z,57.3
2017-07-29T13:30:21.737Z,56.9
2017-07-29T13:31:23.175Z,56.9
2017-07-29T13:32:24.579Z,56.5
2017-07-29T13:33:25.988Z,56.9
2017-07-29T13:34:27.394Z,56.9
2017-07-29T13:35:28.801Z,57.0
2017-07-29T13:36:30.209Z,57.3
2017-07-29T13:37:31.622Z,56.2